createdAt,value
2018-06-04T00:02:25.791Z,14.30
2018-06-04T00:07:21.381Z,14.50
2018-06-04T00:09:49.288Z,14.80
2018-06-04T00:12:17.205Z,15.10
2018-06-04T00:14:45.065Z,15.30
2018-06-04T00:17:12.970Z,15.30
2018-06-04T00:19:40.862Z,15.10
2018-06-04T00:22:08.745Z,14.80
2018-06-04T00:24:36.676Z,14.50
2018-06-04T00:27:04.596Z,14.20
2018-06-04T00:29:32.647Z,14.10
2018-06-04T00:34:28.303Z,13.90
2018-06-04T00:36:56.177Z,13.90
2018-06-04T00:39:24.068Z,13.90
2018-06-04T00:41:51.976Z,14.00
2018-06-04T00:44:19.851Z,14.10
2018-06-04T00:49:15.448Z,14.20
2018-06-04T00:51:43.348Z,14.20
2018-06-04T00:54:11.282Z,14.20
2018-06-04T00:56:39.160Z,14.20
2018-06-04T00:59:07.061Z,14.30
2018-06-04T01:04:02.672Z,14.30
2018-06-04T01:06:30.552Z,14.40
2018-06-04T01:08:58.464Z,14.40
2018-06-04T01:11:26.361Z,14.40
2018-06-04T01:13:54.296Z,14.30
2018-06-04T01:16:22.236Z,14.00
2018-06-04T01:18:50.115Z,13.80
2018-06-04T01:23:45.748Z,13.40
2018-06-04T01:33:36.903Z,13.30
2018-06-04T01:36:04.849Z,13.20
2018-06-04T01:38:32.751Z,13.30
2018-06-04T01:43:28.358Z,13.40
2018-06-04T01:45:56.269Z,13.40
2018-06-04T01:48:24.156Z,13.30
2018-06-04T01:50:52.071Z,13.20
2018-06-04T01:53:19.977Z,13.20
2018-06-04T01:58:15.584Z,13.00
2018-06-04T02:00:43.704Z,13.00
2018-06-04T02:03:11.590Z,13.00
2018-06-04T02:05:39.500Z,13.10
2018-06-04T02:10:35.108Z,13.20
2018-06-04T02:13:03.000Z,13.20
2018-06-04T02:17:58.592Z,12.90
2018-06-04T02:20:26.576Z,12.80
2018-06-04T02:22:54.493Z,12.90
2018-06-04T02:25:22.435Z,13.00
2018-06-04T02:27:50.344Z,13.10
2018-06-04T02:30:18.273Z,13.20
2018-06-04T02:32:46.141Z,13.20
2018-06-04T02:35:15.552Z,13.10
2018-06-04T02:37:44.017Z,13.10
2018-06-04T02:40:11.953Z,12.90
2018-06-04T02:42:39.874Z,12.80
2018-06-04T02:45:07.768Z,12.70
2018-06-04T02:47:35.941Z,12.70
2018-06-04T02:50:04.307Z,12.60
2018-06-04T02:52:32.220Z,12.60
2018-06-04T02:55:00.274Z,12.60
2018-06-04T02:57:28.346Z,12.50
2018-06-04T02:59:56.552Z,12.50
2018-06-04T03:02:24.599Z,12.40
2018-06-04T03:04:52.809Z,12.40
2018-06-04T03:07:20.856Z,12.40
2018-06-04T03:09:48.914Z,12.50
2018-06-04T03:12:16.994Z,12.70
2018-06-04T03:14:45.056Z,12.90
2018-06-04T03:17:13.161Z,13.10
2018-06-04T03:19:41.340Z,13.20
2018-06-04T03:22:09.474Z,13.40
2018-06-04T03:24:37.565Z,13.40
2018-06-04T03:27:05.750Z,13.30
2018-06-04T03:29:33.805Z,13.20
2018-06-04T03:32:01.897Z,13.00
2018-06-04T03:34:29.949Z,13.00
2018-06-04T03:36:58.149Z,13.00
2018-06-04T03:39:26.207Z,13.00
2018-06-04T03:41:54.260Z,13.00
2018-06-04T03:44:22.474Z,13.00
2018-06-04T03:46:50.528Z,13.10
2018-06-04T03:49:18.604Z,13.20
2018-06-04T03:51:46.684Z,13.50
2018-06-04T03:54:14.739Z,14.00
2018-06-04T03:56:42.832Z,15.00
2018-06-04T03:59:10.896Z,16.20
2018-06-04T04:01:38.948Z,17.10
2018-06-04T04:04:07.205Z,17.90
2018-06-04T04:06:35.329Z,18.40
2018-06-04T04:09:05.032Z,19.30
2018-06-04T04:11:33.108Z,20.00
2018-06-04T04:14:01.266Z,20.40
2018-06-04T04:16:29.360Z,20.80
2018-06-04T04:18:57.433Z,21.20
2018-06-04T04:21:25.700Z,21.60
2018-06-04T04:23:53.793Z,22.00
2018-06-04T04:26:22.029Z,22.30
2018-06-04T04:31:18.017Z,23.00
2018-06-04T04:33:46.176Z,23.30
2018-06-04T04:36:14.220Z,23.20
2018-06-04T04:41:10.172Z,23.60
2018-06-04T04:43:38.255Z,24.00
2018-06-04T04:46:06.347Z,24.10
2018-06-04T04:48:34.385Z,24.10
2018-06-04T04:51:02.524Z,23.40
2018-06-04T04:53:30.566Z,23.80
2018-06-04T04:55:58.712Z,23.70
2018-06-04T04:58:26.853Z,23.80
2018-06-04T05:08:18.493Z,24.30
2018-06-04T05:10:46.544Z,24.00
2018-06-04T05:13:14.736Z,24.40
2018-06-04T05:15:42.928Z,24.00
2018-06-04T05:18:10.957Z,24.20
2018-06-04T05:20:39.065Z,24.30
2018-06-04T05:23:07.142Z,24.80
2018-06-04T05:25:35.205Z,25.30
2018-06-04T05:28:03.348Z,25.30
2018-06-04T05:32:59.449Z,25.60
2018-06-04T05:35:27.788Z,25.60
2018-06-04T05:37:55.976Z,24.90
2018-06-04T05:40:24.052Z,25.30
2018-06-04T05:42:52.093Z,25.40
2018-06-04T05:45:20.208Z,25.40
2018-06-04T05:47:48.279Z,25.70
2018-06-04T05:50:16.329Z,25.40
2018-06-04T05:52:44.408Z,24.70
2018-06-04T05:55:12.481Z,24.70
2018-06-04T05:57:40.536Z,24.80
2018-06-04T06:00:08.647Z,24.50
2018-06-04T06:02:36.682Z,24.90
2018-06-04T06:05:04.887Z,24.70
2018-06-04T06:07:32.956Z,23.90
2018-06-04T06:10:00.983Z,22.40
2018-06-04T06:12:29.209Z,21.30
2018-06-04T06:14:57.276Z,20.70
2018-06-04T06:17:25.335Z,20.70
2018-06-04T06:19:53.599Z,20.60
2018-06-04T06:22:21.704Z,20.40
2018-06-04T06:24:49.747Z,20.20
2018-06-04T06:27:17.850Z,20.20
2018-06-04T06:29:46.005Z,20.00
2018-06-04T06:32:14.217Z,20.10
2018-06-04T06:34:42.356Z,20.00
2018-06-04T06:37:10.453Z,20.00
2018-06-04T06:39:38.609Z,20.30
2018-06-04T06:42:06.695Z,20.40
2018-06-04T06:44:34.859Z,20.40
2018-06-04T06:47:03.030Z,20.40
2018-06-04T06:49:31.116Z,20.50
2018-06-04T06:51:59.248Z,20.80
2018-06-04T06:54:27.461Z,20.90
2018-06-04T06:56:55.545Z,21.10
2018-06-04T06:59:23.712Z,21.20
2018-06-04T07:01:51.956Z,21.10
2018-06-04T07:04:19.969Z,21.30
2018-06-04T07:06:48.018Z,21.30
2018-06-04T07:09:16.124Z,21.30
2018-06-04T07:11:44.120Z,21.50
2018-06-04T07:14:12.192Z,21.50
2018-06-04T07:16:40.320Z,21.60
2018-06-04T07:19:08.396Z,21.70
2018-06-04T07:21:36.495Z,21.90
2018-06-04T07:24:04.763Z,21.90
2018-06-04T07:26:32.820Z,21.80
2018-06-04T07:29:00.900Z,22.20
2018-06-04T07:31:28.966Z,22.20
2018-06-04T07:33:57.059Z,22.10
2018-06-04T07:36:25.102Z,22.10
2018-06-04T07:38:53.206Z,22.30
2018-06-04T07:41:21.290Z,22.60
2018-06-04T07:43:49.328Z,22.80
2018-06-04T07:46:17.411Z,23.00
2018-06-04T07:48:45.445Z,23.00
2018-06-04T07:51:13.437Z,22.90
2018-06-04T07:53:41.550Z,23.20
2018-06-04T07:56:09.699Z,23.30
2018-06-04T07:58:37.796Z,23.40
2018-06-04T08:01:05.860Z,23.50
2018-06-04T08:03:33.910Z,23.40
2018-06-04T08:06:02.414Z,23.40
2018-06-04T08:08:30.488Z,23.30
2018-06-04T08:10:58.638Z,23.50
2018-06-04T08:13:26.837Z,23.20
2018-06-04T08:15:54.917Z,23.20
2018-06-04T08:18:22.972Z,23.60
2018-06-04T08:20:51.071Z,23.70
2018-06-04T08:23:19.191Z,23.70
2018-06-04T08:28:15.271Z,23.90
2018-06-04T08:30:43.348Z,24.10
2018-06-04T08:33:11.600Z,24.20
2018-06-04T08:37:37.357Z,24.20
2018-06-04T08:40:05.423Z,24.50
2018-06-04T08:42:32.771Z,24.80
2018-06-04T08:45:00.155Z,24.70
2018-06-04T08:47:27.471Z,24.70
2018-06-04T08:52:21.914Z,25.10
2018-06-04T08:54:49.264Z,25.10
2018-06-04T08:57:16.643Z,25.10
2018-06-04T08:59:43.976Z,25.00
2018-06-04T09:02:11.322Z,25.10
2018-06-04T09:04:38.659Z,25.30
2018-06-04T09:07:06.046Z,25.40
2018-06-04T09:09:33.481Z,25.30
2018-06-04T09:14:27.883Z,25.40
2018-06-04T09:19:23.726Z,25.80
2018-06-04T09:21:52.044Z,25.70
2018-06-04T09:24:20.099Z,25.30
2018-06-04T09:26:48.177Z,25.20
2018-06-04T09:29:16.233Z,25.50
2018-06-04T09:31:44.320Z,25.70
2018-06-04T09:34:12.369Z,25.80
2018-06-04T09:36:40.521Z,26.00
2018-06-04T09:39:08.508Z,26.20
2018-06-04T09:44:04.447Z,26.00
2018-06-04T09:49:00.291Z,26.00
2018-06-04T09:53:56.151Z,26.20
2018-06-04T09:56:24.251Z,26.40
2018-06-04T09:58:52.283Z,26.60
2018-06-04T10:01:20.359Z,26.10
2018-06-04T10:03:48.441Z,26.20
2018-06-04T10:06:16.534Z,26.60
2018-06-04T10:08:44.596Z,26.40
2018-06-04T10:11:12.741Z,26.30
2018-06-04T10:16:08.794Z,26.30
2018-06-04T10:18:36.997Z,26.60
2018-06-04T10:21:05.023Z,26.60
2018-06-04T10:23:33.152Z,26.30
2018-06-04T10:26:01.292Z,26.30
2018-06-04T10:28:29.384Z,26.20
2018-06-04T10:30:57.459Z,26.30
2018-06-04T10:33:25.503Z,26.20
2018-06-04T10:35:53.601Z,26.30
2018-06-04T10:38:21.653Z,26.40
2018-06-04T10:43:17.493Z,26.90
2018-06-04T10:48:13.351Z,26.70
2018-06-04T10:50:41.423Z,27.00
2018-06-04T10:53:09.484Z,26.80
2018-06-04T10:55:37.696Z,26.80
2018-06-04T10:58:05.755Z,26.80
2018-06-04T11:00:33.801Z,26.70
2018-06-04T11:05:29.749Z,26.80
2018-06-04T11:07:57.849Z,26.90
2018-06-04T11:10:25.896Z,26.90
2018-06-04T11:12:54.001Z,26.90
2018-06-04T11:15:22.045Z,26.80
2018-06-04T11:17:50.128Z,27.00
2018-06-04T11:20:18.199Z,27.10
2018-06-04T11:22:46.278Z,27.10
2018-06-04T11:25:14.325Z,26.90
2018-06-04T11:30:10.268Z,26.70
2018-06-04T11:35:06.225Z,26.70
2018-06-04T11:37:34.329Z,27.00
2018-06-04T11:40:02.392Z,27.00
2018-06-04T11:42:30.431Z,27.20
2018-06-04T11:47:26.266Z,27.20
2018-06-04T11:52:22.360Z,27.10
2018-06-04T11:54:50.406Z,27.20
2018-06-04T11:57:18.602Z,27.30
2018-06-04T11:59:46.637Z,27.30
2018-06-04T12:02:14.682Z,27.50
2018-06-04T12:04:42.685Z,27.60
2018-06-04T12:07:10.768Z,27.80
2018-06-04T12:09:38.824Z,27.70
2018-06-04T12:12:06.940Z,27.60
2018-06-04T12:14:35.078Z,27.50
2018-06-04T12:17:03.168Z,27.40
2018-06-04T12:19:31.223Z,27.40
2018-06-04T12:24:27.176Z,27.80
2018-06-04T12:26:55.220Z,27.80
2018-06-04T12:34:19.051Z,27.40
2018-06-04T12:36:47.138Z,27.60
2018-06-04T12:39:15.190Z,27.50
2018-06-04T12:44:11.135Z,27.30
2018-06-04T12:49:07.006Z,27.50
2018-06-04T12:51:35.058Z,27.70
2018-06-04T12:54:03.147Z,27.80
2018-06-04T12:56:31.198Z,27.90
2018-06-04T12:58:59.397Z,27.80
2018-06-04T13:01:27.448Z,27.70
2018-06-04T13:03:55.490Z,27.60
2018-06-04T13:06:23.484Z,27.70
2018-06-04T13:11:19.353Z,28.00
2018-06-04T13:13:47.400Z,28.10
2018-06-04T13:18:43.640Z,27.80
2018-06-04T13:23:41.536Z,27.90
2018-06-04T13:28:37.613Z,27.80
2018-06-04T13:31:05.661Z,27.70
2018-06-04T13:33:34.369Z,27.70
2018-06-04T13:36:02.367Z,27.70
2018-06-04T13:38:30.625Z,27.80
2018-06-04T13:40:58.549Z,27.90
2018-06-04T13:45:54.508Z,27.90
2018-06-04T13:48:22.913Z,27.80
2018-06-04T13:50:51.088Z,27.70
2018-06-04T13:53:19.335Z,27.70
2018-06-04T13:55:48.060Z,28.00
2018-06-04T13:58:16.097Z,28.00
2018-06-04T14:00:44.775Z,27.90
2018-06-04T14:05:41.056Z,27.70
2018-06-04T14:08:09.119Z,27.70
2018-06-04T14:10:37.996Z,28.00
2018-06-04T14:13:06.054Z,27.90
2018-06-04T14:18:01.912Z,27.90
2018-06-04T14:20:30.039Z,27.90
2018-06-04T14:22:58.082Z,28.00
2018-06-04T14:25:26.256Z,27.80
2018-06-04T14:27:54.512Z,27.90
2018-06-04T14:30:23.045Z,27.90
2018-06-04T14:32:53.996Z,27.90
2018-06-04T14:35:22.112Z,27.90
2018-06-04T14:37:50.264Z,27.70
2018-06-04T14:42:46.254Z,27.90
2018-06-04T14:45:15.862Z,28.00
2018-06-04T14:47:43.941Z,28.20
2018-06-04T14:50:12.731Z,28.10
2018-06-04T14:52:41.114Z,28.20
2018-06-04T14:57:37.016Z,28.50
2018-06-04T15:02:32.956Z,28.40
2018-06-04T15:07:51.695Z,28.20
2018-06-04T15:12:57.540Z,28.10
2018-06-04T15:15:26.079Z,28.20
2018-06-04T15:17:54.766Z,28.30
2018-06-04T15:22:58.195Z,28.20
2018-06-04T15:27:54.054Z,28.00
2018-06-04T15:30:22.112Z,28.10
2018-06-04T15:35:18.261Z,28.10
2018-06-04T15:37:46.413Z,28.20
2018-06-04T15:40:14.612Z,28.30
2018-06-04T15:42:42.722Z,28.20
2018-06-04T15:45:10.753Z,28.10
2018-06-04T15:47:38.881Z,28.00
2018-06-04T15:50:06.932Z,28.10
2018-06-04T15:52:34.979Z,28.00
2018-06-04T15:55:03.062Z,28.00
2018-06-04T15:57:31.116Z,28.20
2018-06-04T16:02:27.063Z,28.20
2018-06-04T16:07:23.120Z,28.20
2018-06-04T16:09:51.208Z,28.20
2018-06-04T16:12:19.269Z,28.10
2018-06-04T16:14:47.387Z,28.10
2018-06-04T16:17:15.401Z,28.10
2018-06-04T16:22:11.289Z,28.20
2018-06-04T16:24:39.331Z,28.10
2018-06-04T16:27:07.411Z,28.40
2018-06-04T16:29:35.812Z,30.20
2018-06-04T16:32:04.004Z,30.70
2018-06-04T16:34:32.023Z,31.30
2018-06-04T16:37:00.127Z,31.40
2018-06-04T16:39:28.164Z,31.90
2018-06-04T16:41:56.594Z,32.40
2018-06-04T16:44:24.628Z,32.30
2018-06-04T16:46:52.711Z,32.50
2018-06-04T16:49:20.764Z,32.70
2018-06-04T16:51:48.861Z,31.90
2018-06-04T16:54:17.243Z,31.70
2018-06-04T16:56:45.307Z,32.20
2018-06-04T16:59:13.362Z,32.50
2018-06-04T17:04:09.204Z,32.30
2018-06-04T17:06:37.305Z,31.90
2018-06-04T17:09:07.316Z,32.20
2018-06-04T17:11:35.360Z,31.90
2018-06-04T17:16:31.311Z,32.70
2018-06-04T17:18:59.412Z,32.20
2018-06-04T17:21:27.461Z,31.70
2018-06-04T17:23:55.748Z,31.40
2018-06-04T17:26:23.822Z,31.70
2018-06-04T17:28:51.899Z,31.20
2018-06-04T17:31:19.952Z,31.50
2018-06-04T17:36:15.824Z,31.50
2018-06-04T17:38:43.903Z,31.80
2018-06-04T17:41:12.135Z,31.60
2018-06-04T17:46:07.990Z,30.80
2018-06-04T17:48:36.085Z,30.40
2018-06-04T17:51:04.163Z,30.70
2018-06-04T17:53:32.424Z,30.30
2018-06-04T17:56:00.504Z,30.40
2018-06-04T17:58:28.651Z,30.60
2018-06-04T18:03:24.488Z,30.40
2018-06-04T18:08:20.535Z,29.40
2018-06-04T18:13:16.496Z,28.40
2018-06-04T18:15:44.558Z,27.60
2018-06-04T18:18:12.664Z,27.30
2018-06-04T18:20:40.696Z,27.40
2018-06-04T18:25:36.539Z,27.40
2018-06-04T18:28:04.652Z,27.20
2018-06-04T18:30:32.693Z,27.10
2018-06-04T18:33:00.794Z,26.70
2018-06-04T18:35:28.868Z,26.60
2018-06-04T18:37:56.915Z,26.20
2018-06-04T18:40:25.006Z,25.50
2018-06-04T18:42:52.472Z,24.90
2018-06-04T18:45:19.831Z,24.40
2018-06-04T18:47:47.252Z,24.10
2018-06-04T18:52:43.091Z,23.60
2018-06-04T18:55:10.480Z,23.40
2018-06-04T18:57:38.520Z,23.10
2018-06-04T19:02:33.655Z,22.80
2018-06-04T19:05:01.727Z,22.60
2018-06-04T19:07:29.853Z,22.40
2018-06-04T19:09:57.976Z,22.20
2018-06-04T19:12:26.061Z,22.10
2018-06-04T19:14:54.166Z,22.00
2018-06-04T19:17:22.220Z,21.80
2018-06-04T19:19:50.264Z,21.60
2018-06-04T19:22:18.352Z,21.50
2018-06-04T19:24:45.687Z,21.40
2018-06-04T19:27:13.166Z,21.10
2018-06-04T19:29:40.516Z,21.00
2018-06-04T19:32:07.888Z,20.90
2018-06-04T19:34:35.214Z,20.90
2018-06-04T19:39:29.826Z,20.80
2018-06-04T19:41:57.184Z,20.60
2018-06-04T19:44:24.566Z,20.60
2018-06-04T19:46:51.902Z,20.50
2018-06-04T19:49:19.270Z,20.50
2018-06-04T19:51:46.612Z,20.50
2018-06-04T19:54:14.092Z,20.40
2018-06-04T19:56:41.431Z,20.40
2018-06-04T19:59:08.838Z,20.30
2018-06-04T20:01:36.150Z,20.30
2018-06-04T20:04:03.504Z,20.20
2018-06-04T20:06:30.870Z,20.20
2018-06-04T20:08:58.209Z,20.20
2018-06-04T20:11:25.592Z,20.10
2018-06-04T20:13:52.939Z,20.00
2018-06-04T20:16:20.297Z,20.00
2018-06-04T20:18:47.653Z,19.90
2018-06-04T20:21:15.020Z,19.90
2018-06-04T20:23:42.459Z,19.90
2018-06-04T20:26:09.812Z,19.90
2018-06-04T20:28:37.177Z,19.90
2018-06-04T20:31:04.710Z,19.80
2018-06-04T20:37:37.980Z,19.60
2018-06-04T20:40:06.123Z,19.50
2018-06-04T20:42:34.223Z,19.50
2018-06-04T20:45:02.279Z,19.40
2018-06-04T20:47:30.360Z,19.40
2018-06-04T20:49:58.417Z,19.30
2018-06-04T20:52:26.503Z,19.20
2018-06-04T20:54:54.571Z,19.20
2018-06-04T20:57:22.755Z,19.10
2018-06-04T20:59:50.807Z,19.00
2018-06-04T21:02:18.910Z,18.90
2018-06-04T21:04:46.969Z,18.80
2018-06-04T21:07:15.053Z,18.80
2018-06-04T21:09:43.095Z,18.70
2018-06-04T21:14:38.944Z,18.50
2018-06-04T21:17:07.037Z,18.50
2018-06-04T21:19:35.220Z,18.50
2018-06-04T21:22:03.399Z,18.40
2018-06-04T21:24:31.455Z,18.40
2018-06-04T21:26:59.539Z,18.40
2018-06-04T21:29:27.595Z,18.40
2018-06-04T21:31:55.694Z,18.30
2018-06-04T21:34:23.765Z,18.30
2018-06-04T21:36:51.818Z,18.30
2018-06-04T21:39:19.913Z,18.40
2018-06-04T21:41:47.959Z,18.40
2018-06-04T21:44:16.060Z,18.50
2018-06-04T21:46:44.097Z,18.50
2018-06-04T21:49:16.889Z,18.40
2018-06-04T21:51:44.960Z,18.30
2018-06-04T21:54:13.051Z,18.20
2018-06-04T21:56:41.103Z,18.20
2018-06-04T21:59:09.204Z,18.20
2018-06-04T22:01:37.252Z,18.20
2018-06-04T22:04:05.323Z,18.20
2018-06-04T22:06:33.427Z,18.20
2018-06-04T22:09:01.505Z,18.30
2018-06-04T22:11:29.560Z,18.30
2018-06-04T22:13:57.608Z,18.40
2018-06-04T22:18:53.697Z,18.30
2018-06-04T22:21:21.760Z,18.30
2018-06-04T22:23:49.804Z,18.20
2018-06-04T22:26:17.896Z,18.20
2018-06-04T22:28:45.981Z,18.40
2018-06-04T22:31:13.999Z,18.40
2018-06-04T22:33:42.121Z,18.40
2018-06-04T22:36:10.184Z,18.30
2018-06-04T22:38:38.372Z,18.20
2018-06-04T22:41:06.993Z,18.10
2018-06-04T22:43:35.025Z,18.10
2018-06-04T22:46:03.088Z,18.00
2018-06-04T22:48:31.182Z,18.00
2018-06-04T22:50:59.335Z,17.90
2018-06-04T22:53:27.436Z,17.90
2018-06-04T22:55:55.475Z,18.00
2018-06-04T22:58:23.683Z,18.10
2018-06-04T23:00:51.733Z,18.20
2018-06-04T23:03:19.823Z,18.30
2018-06-04T23:05:47.860Z,18.40
2018-06-04T23:08:15.930Z,18.50
2018-06-04T23:13:11.811Z,18.60
2018-06-04T23:15:39.941Z,18.50
2018-06-04T23:20:35.828Z,18.30
2018-06-04T23:23:03.868Z,18.30
2018-06-04T23:25:31.964Z,18.10
2018-06-04T23:28:00.017Z,17.90
2018-06-04T23:30:28.118Z,17.60
2018-06-04T23:32:56.259Z,17.60
2018-06-04T23:37:52.140Z,17.50
2018-06-04T23:40:20.276Z,17.50
2018-06-04T23:42:48.461Z,17.60
2018-06-04T23:45:16.479Z,17.80
2018-06-04T23:47:44.510Z,18.00
2018-06-04T23:50:12.690Z,18.20
2018-06-04T23:52:40.767Z,18.30
2018-06-04T23:55:09.213Z,18.30
2018-06-04T23:57:37.632Z,18.30
